Time;durP1;ratioP1;P1;durP2;ratioP2;P2;SDS_P1;SDS_P2;PMS_P1;PMS_P2;Temp;Humidity;BMP_temperature;BMP_pressure;BME280_temperature;BME280_humidity;BME280_pressure;Samples;Min_cycle;Max_cycle;Signal;HPM_P1;HPM_P2
2024/01/14 00:00:06;;;;;;;0.40;0.40;;;;;;;;;;4956737;28;20126;-90
2024/01/14 00:02:32;;;;;;;0.50;0.50;;;;;;;;;;4956828;28;20046;-90
2024/01/14 00:04:58;;;;;;;0.50;0.50;;;;;;;;;;4956878;28;20070;-90
2024/01/14 00:07:25;;;;;;;0.50;0.50;;;;;;;;;;4957224;28;20047;-90
2024/01/14 00:09:51;;;;;;;0.50;0.50;;;;;;;;;;4957468;28;20042;-91
2024/01/14 00:12:17;;;;;;;0.50;0.50;;;;;;;;;;4970474;28;20122;-91
2024/01/14 00:14:45;;;;;;;0.43;0.43;;;;;;;;;;4960710;28;20042;-91
2024/01/14 00:17:11;;;;;;;0.40;0.40;;;;;;;;;;4975104;28;20493;-91
2024/01/14 00:19:37;;;;;;;0.50;0.50;;;;;;;;;;4956537;28;20049;-90
2024/01/14 00:22:04;;;;;;;0.50;0.50;;;;;;;;;;4959656;28;20075;-90
2024/01/14 00:24:30;;;;;;;0.50;0.50;;;;;;;;;;4976643;28;20043;-90
2024/01/14 00:26:56;;;;;;;0.50;0.50;;;;;;;;;;4960393;28;20078;-90
2024/01/14 00:29:22;;;;;;;0.50;0.50;;;;;;;;;;4964459;28;20042;-90
2024/01/14 00:31:48;;;;;;;0.50;0.50;;;;;;;;;;4961925;28;20039;-90
2024/01/14 00:34:14;;;;;;;0.50;0.50;;;;;;;;;;4959562;28;20413;-90
2024/01/14 00:36:40;;;;;;;0.50;0.50;;;;;;;;;;4960238;28;20526;-90
2024/01/14 00:39:06;;;;;;;0.50;0.50;;;;;;;;;;4975725;28;20030;-90
2024/01/14 00:41:33;;;;;;;0.50;0.50;;;;;;;;;;4976134;28;20041;-90
2024/01/14 00:44:00;;;;;;;0.45;0.45;;;;;;;;;;4975542;28;20046;-90
2024/01/14 00:46:26;;;;;;;0.50;0.50;;;;;;;;;;4961720;28;20474;-91
2024/01/14 00:48:52;;;;;;;0.40;0.40;;;;;;;;;;4970026;28;20038;-90
2024/01/14 00:51:18;;;;;;;0.50;0.50;;;;;;;;;;4974762;28;20046;-90
2024/01/14 00:53:44;;;;;;;0.50;0.50;;;;;;;;;;4975692;28;20035;-90
2024/01/14 00:56:11;;;;;;;0.50;0.50;;;;;;;;;;4960194;28;20039;-91
2024/01/14 00:58:37;;;;;;;0.55;0.55;;;;;;;;;;4962271;28;20094;-90
2024/01/14 01:01:03;;;;;;;0.50;0.50;;;;;;;;;;4979274;28;20049;-89
2024/01/14 01:03:29;;;;;;;0.50;0.50;;;;;;;;;;4988402;28;20130;-90
2024/01/14 01:05:55;;;;;;;0.52;0.52;;;;;;;;;;4959857;28;20129;-90
2024/01/14 01:08:22;;;;;;;0.50;0.50;;;;;;;;;;4959963;28;20053;-89
2024/01/14 01:10:49;;;;;;;0.50;0.50;;;;;;;;;;4976103;28;20489;-91
2024/01/14 01:13:15;;;;;;;0.50;0.50;;;;;;;;;;4959746;28;20041;-90
2024/01/14 01:15:40;;;;;;;0.40;0.40;;;;;;;;;;4959467;28;20038;-90
2024/01/14 01:18:07;;;;;;;0.50;0.50;;;;;;;;;;4959629;28;20473;-90
2024/01/14 01:20:33;;;;;;;0.47;0.47;;;;;;;;;;4959945;28;20047;-89
2024/01/14 01:22:59;;;;;;;0.50;0.50;;;;;;;;;;4958678;28;20049;-87
2024/01/14 01:25:25;;;;;;;0.50;0.50;;;;;;;;;;4959597;28;20035;-89
2024/01/14 01:27:51;;;;;;;0.50;0.50;;;;;;;;;;4975780;28;20504;-88
2024/01/14 01:30:17;;;;;;;0.50;0.50;;;;;;;;;;4959528;28;20137;-89
2024/01/14 01:32:43;;;;;;;0.50;0.50;;;;;;;;;;4975299;28;20065;-88
2024/01/14 01:35:09;;;;;;;0.47;0.47;;;;;;;;;;4959369;28;20038;-87
2024/01/14 01:37:35;;;;;;;0.40;0.40;;;;;;;;;;4959319;28;20049;-88
2024/01/14 01:40:01;;;;;;;0.50;0.50;;;;;;;;;;4959487;28;20050;-88
2024/01/14 01:42:27;;;;;;;0.45;0.45;;;;;;;;;;4958308;28;20405;-89
2024/01/14 01:44:53;;;;;;;0.50;0.50;;;;;;;;;;4975015;28;20042;-88
2024/01/14 01:47:20;;;;;;;0.40;0.40;;;;;;;;;;4959380;28;20461;-89
2024/01/14 01:49:46;;;;;;;0.40;0.40;;;;;;;;;;4959070;28;20086;-88
2024/01/14 01:52:12;;;;;;;0.50;0.50;;;;;;;;;;4974809;28;20043;-88
2024/01/14 01:54:39;;;;;;;0.50;0.50;;;;;;;;;;4958966;28;20615;-89
2024/01/14 01:57:05;;;;;;;0.50;0.50;;;;;;;;;;4975309;28;20050;-88
2024/01/14 01:59:31;;;;;;;0.50;0.50;;;;;;;;;;4975149;28;20043;-88
2024/01/14 02:01:59;;;;;;;0.50;0.50;;;;;;;;;;4947392;28;20501;-89
2024/01/14 02:04:26;;;;;;;0.43;0.43;;;;;;;;;;4939888;29;20039;-88
2024/01/14 02:06:52;;;;;;;0.50;0.50;;;;;;;;;;4939774;29;20078;-88
2024/01/14 02:09:18;;;;;;;0.50;0.50;;;;;;;;;;4939552;29;20129;-88
2024/01/14 02:11:44;;;;;;;0.45;0.45;;;;;;;;;;4953085;28;20445;-88
2024/01/14 02:14:10;;;;;;;0.50;0.50;;;;;;;;;;4992512;28;20045;-88
2024/01/14 02:16:36;;;;;;;0.50;0.50;;;;;;;;;;4977778;28;20043;-87
2024/01/14 02:19:02;;;;;;;0.40;0.40;;;;;;;;;;4977874;28;20559;-87
2024/01/14 02:21:34;;;;;;;0.50;0.50;;;;;;;;;;4977443;28;20039;-87
2024/01/14 02:24:05;;;;;;;0.40;0.40;;;;;;;;;;4993867;28;20129;-87
2024/01/14 02:26:31;;;;;;;0.47;0.47;;;;;;;;;;4977781;28;20439;-87
2024/01/14 02:28:57;;;;;;;0.50;0.50;;;;;;;;;;4977766;28;20077;-88
2024/01/14 02:31:24;;;;;;;0.40;0.40;;;;;;;;;;4967098;28;20046;-88
2024/01/14 02:33:50;;;;;;;0.50;0.50;;;;;;;;;;4957240;28;20049;-87
2024/01/14 02:36:15;;;;;;;0.50;0.50;;;;;;;;;;4958432;28;20047;-87
2024/01/14 02:38:41;;;;;;;0.40;0.40;;;;;;;;;;4958200;28;20050;-88
2024/01/14 02:41:07;;;;;;;0.50;0.50;;;;;;;;;;4957956;28;20555;-88
2024/01/14 02:43:33;;;;;;;0.50;0.50;;;;;;;;;;4958049;28;20382;-88
2024/01/14 02:45:59;;;;;;;0.50;0.50;;;;;;;;;;4973810;28;20038;-88
2024/01/14 02:48:25;;;;;;;0.50;0.50;;;;;;;;;;4973893;28;20054;-88
2024/01/14 02:50:52;;;;;;;0.50;0.50;;;;;;;;;;4957810;28;20043;-88
2024/01/14 02:53:18;;;;;;;0.50;0.50;;;;;;;;;;4973880;28;20512;-88
2024/01/14 02:55:44;;;;;;;0.50;0.50;;;;;;;;;;4957809;28;20052;-88
2024/01/14 02:58:10;;;;;;;0.50;0.50;;;;;;;;;;4958084;28;20053;-88
2024/01/14 03:00:35;;;;;;;0.50;0.50;;;;;;;;;;4957549;28;20043;-88
2024/01/14 03:03:01;;;;;;;0.40;0.40;;;;;;;;;;4957737;28;20050;-88
2024/01/14 03:05:27;;;;;;;0.50;0.50;;;;;;;;;;4957757;28;20089;-88
2024/01/14 03:07:53;;;;;;;0.40;0.40;;;;;;;;;;4957823;28;20054;-88
2024/01/14 03:10:19;;;;;;;0.50;0.50;;;;;;;;;;4973709;28;20034;-88
2024/01/14 03:12:45;;;;;;;0.40;0.40;;;;;;;;;;4957422;28;20030;-89
2024/01/14 03:15:11;;;;;;;0.50;0.50;;;;;;;;;;4957477;28;20039;-88
2024/01/14 03:17:37;;;;;;;0.50;0.50;;;;;;;;;;4957776;28;20100;-89
2024/01/14 03:20:03;;;;;;;0.50;0.50;;;;;;;;;;4973602;28;20134;-88
2024/01/14 03:22:29;;;;;;;0.50;0.50;;;;;;;;;;4957450;28;20082;-88
2024/01/14 03:24:55;;;;;;;0.50;0.50;;;;;;;;;;4957444;28;20493;-89
2024/01/14 03:27:21;;;;;;;0.50;0.50;;;;;;;;;;4957621;28;20053;-89
2024/01/14 03:29:47;;;;;;;0.50;0.50;;;;;;;;;;4957395;28;20099;-89
2024/01/14 03:32:13;;;;;;;0.50;0.50;;;;;;;;;;4957184;28;20039;-88
2024/01/14 03:34:39;;;;;;;0.47;0.47;;;;;;;;;;4957546;28;20500;-88
2024/01/14 03:37:05;;;;;;;0.50;0.50;;;;;;;;;;4957526;28;20039;-89
2024/01/14 03:39:31;;;;;;;0.50;0.50;;;;;;;;;;4957411;28;20046;-88
2024/01/14 03:41:57;;;;;;;0.50;0.50;;;;;;;;;;4957043;28;20047;-88
2024/01/14 03:44:23;;;;;;;0.50;0.50;;;;;;;;;;4957073;28;20039;-88
2024/01/14 03:46:49;;;;;;;0.40;0.40;;;;;;;;;;4957342;28;20046;-89
2024/01/14 03:49:15;;;;;;;0.50;0.50;;;;;;;;;;4956961;28;20042;-88
2024/01/14 03:51:41;;;;;;;0.50;0.50;;;;;;;;;;4957031;28;20537;-88
2024/01/14 03:54:07;;;;;;;0.50;0.50;;;;;;;;;;4956862;28;20078;-88
2024/01/14 03:56:33;;;;;;;0.40;0.40;;;;;;;;;;4957246;28;20077;-88
2024/01/14 03:58:59;;;;;;;0.50;0.50;;;;;;;;;;4956980;28;20038;-88
2024/01/14 04:01:25;;;;;;;0.50;0.50;;;;;;;;;;4956948;28;20050;-87
2024/01/14 04:03:51;;;;;;;0.50;0.50;;;;;;;;;;4956765;28;20102;-88
2024/01/14 04:06:22;;;;;;;0.57;0.57;;;;;;;;;;4972817;28;20049;-89
2024/01/14 04:08:48;;;;;;;0.50;0.50;;;;;;;;;;4972906;28;20051;-89
2024/01/14 04:11:14;;;;;;;0.57;0.57;;;;;;;;;;4957041;28;20650;-89
2024/01/14 04:13:40;;;;;;;0.50;0.50;;;;;;;;;;4972991;28;20421;-89
2024/01/14 04:16:07;;;;;;;0.40;0.40;;;;;;;;;;4973031;28;20047;-88
2024/01/14 04:18:33;;;;;;;0.50;0.50;;;;;;;;;;4972821;28;20043;-88
2024/01/14 04:20:59;;;;;;;0.50;0.50;;;;;;;;;;4972767;28;20042;-88
2024/01/14 04:23:25;;;;;;;0.40;0.40;;;;;;;;;;4956578;28;20517;-88
2024/01/14 04:25:51;;;;;;;0.50;0.50;;;;;;;;;;4956583;28;20501;-88
2024/01/14 04:28:17;;;;;;;0.50;0.50;;;;;;;;;;4956847;28;20057;-89
2024/01/14 04:30:43;;;;;;;0.50;0.50;;;;;;;;;;4956580;28;20051;-88
2024/01/14 04:33:09;;;;;;;0.47;0.47;;;;;;;;;;4956489;28;20412;-89
2024/01/14 04:35:35;;;;;;;0.50;0.50;;;;;;;;;;4956621;28;20046;-88
2024/01/14 04:38:01;;;;;;;0.50;0.50;;;;;;;;;;4956594;28;20043;-88
2024/01/14 04:40:27;;;;;;;0.55;0.55;;;;;;;;;;4956709;28;20611;-88
2024/01/14 04:42:53;;;;;;;0.50;0.50;;;;;;;;;;4956455;28;20050;-87
2024/01/14 04:45:19;;;;;;;0.50;0.50;;;;;;;;;;4956374;28;20055;-88
2024/01/14 04:47:45;;;;;;;0.50;0.50;;;;;;;;;;4972976;28;20077;-88
2024/01/14 04:50:11;;;;;;;0.50;0.50;;;;;;;;;;4956881;28;20038;-88
2024/01/14 04:52:37;;;;;;;0.50;0.50;;;;;;;;;;4956392;28;20043;-88
2024/01/14 04:55:03;;;;;;;0.50;0.50;;;;;;;;;;4956786;28;20038;-88
2024/01/14 04:57:29;;;;;;;0.50;0.50;;;;;;;;;;4974116;28;20401;-88
2024/01/14 04:59:55;;;;;;;0.50;0.50;;;;;;;;;;4960129;28;20158;-88
2024/01/14 05:02:21;;;;;;;0.50;0.50;;;;;;;;;;4959708;28;20516;-88
2024/01/14 05:04:47;;;;;;;0.50;0.50;;;;;;;;;;4959926;28;20086;-88
2024/01/14 05:07:13;;;;;;;0.50;0.50;;;;;;;;;;4960184;28;20445;-88
2024/01/14 05:09:39;;;;;;;0.50;0.50;;;;;;;;;;4959877;28;20043;-89
2024/01/14 05:12:05;;;;;;;0.50;0.50;;;;;;;;;;4959574;28;20511;-89
2024/01/14 05:14:31;;;;;;;0.40;0.40;;;;;;;;;;4975846;28;20417;-88
2024/01/14 05:16:57;;;;;;;0.50;0.50;;;;;;;;;;4959779;28;20039;-89
2024/01/14 05:19:23;;;;;;;0.50;0.50;;;;;;;;;;4976142;28;20038;-88
2024/01/14 05:21:51;;;;;;;0.50;0.50;;;;;;;;;;4960001;28;20054;-88
2024/01/14 05:24:17;;;;;;;0.50;0.50;;;;;;;;;;4975510;28;20043;-88
2024/01/14 05:26:43;;;;;;;0.50;0.50;;;;;;;;;;4960128;28;20047;-89
2024/01/14 05:29:09;;;;;;;0.55;0.55;;;;;;;;;;4975783;28;20043;-88
2024/01/14 05:31:37;;;;;;;0.50;0.50;;;;;;;;;;4959903;28;20180;-88
2024/01/14 05:34:03;;;;;;;0.40;0.40;;;;;;;;;;4959548;28;20046;-89
2024/01/14 05:36:29;;;;;;;0.50;0.50;;;;;;;;;;4975545;28;20133;-89
2024/01/14 05:38:55;;;;;;;0.50;0.50;;;;;;;;;;4959456;28;20074;-88
2024/01/14 05:41:21;;;;;;;0.40;0.40;;;;;;;;;;4959282;28;20047;-88
2024/01/14 05:43:47;;;;;;;0.50;0.50;;;;;;;;;;4975177;28;20493;-88
2024/01/14 05:46:13;;;;;;;0.50;0.50;;;;;;;;;;4959560;28;20125;-88
2024/01/14 05:48:39;;;;;;;0.47;0.47;;;;;;;;;;4959566;28;20082;-88
2024/01/14 05:51:05;;;;;;;0.40;0.40;;;;;;;;;;4975538;28;20049;-88
2024/01/14 05:53:31;;;;;;;0.50;0.50;;;;;;;;;;4975182;28;20089;-88
2024/01/14 05:55:57;;;;;;;0.50;0.50;;;;;;;;;;4975361;28;20053;-88
2024/01/14 05:58:23;;;;;;;0.50;0.50;;;;;;;;;;4975358;28;20051;-88
2024/01/14 06:00:49;;;;;;;0.50;0.50;;;;;;;;;;4959103;28;20587;-88
2024/01/14 06:03:15;;;;;;;0.40;0.40;;;;;;;;;;4959044;28;20046;-88
2024/01/14 06:05:41;;;;;;;0.50;0.50;;;;;;;;;;4975020;28;20185;-88
2024/01/14 06:08:07;;;;;;;0.50;0.50;;;;;;;;;;4958682;28;20046;-88
2024/01/14 06:10:33;;;;;;;0.50;0.50;;;;;;;;;;4975203;28;20531;-88
2024/01/14 06:12:59;;;;;;;0.50;0.50;;;;;;;;;;4958574;28;20093;-88
2024/01/14 06:15:25;;;;;;;0.40;0.40;;;;;;;;;;4959022;28;20054;-88
2024/01/14 06:17:51;;;;;;;0.50;0.50;;;;;;;;;;4974861;28;20124;-88
2024/01/14 06:20:17;;;;;;;0.60;0.60;;;;;;;;;;4958743;28;20138;-88
2024/01/14 06:22:43;;;;;;;0.50;0.50;;;;;;;;;;4974711;28;20071;-88
2024/01/14 06:25:09;;;;;;;0.50;0.50;;;;;;;;;;4958446;28;20129;-88
2024/01/14 06:27:35;;;;;;;0.50;0.50;;;;;;;;;;4958583;28;20097;-87
2024/01/14 06:30:03;;;;;;;0.40;0.40;;;;;;;;;;4974883;28;20078;-89
2024/01/14 06:32:29;;;;;;;0.47;0.47;;;;;;;;;;4958496;28;20039;-89
2024/01/14 06:34:55;;;;;;;0.50;0.50;;;;;;;;;;4958644;28;20047;-89
2024/01/14 06:37:21;;;;;;;0.50;0.50;;;;;;;;;;4958428;28;20039;-89
2024/01/14 06:39:47;;;;;;;0.50;0.50;;;;;;;;;;4958144;28;20039;-88
2024/01/14 06:42:13;;;;;;;0.50;0.50;;;;;;;;;;4958315;28;20043;-87
2024/01/14 06:44:39;;;;;;;0.50;0.50;;;;;;;;;;4958230;28;20038;-87
2024/01/14 06:47:05;;;;;;;0.50;0.50;;;;;;;;;;4958085;28;20078;-88
2024/01/14 06:49:31;;;;;;;0.50;0.50;;;;;;;;;;4957996;28;20038;-87
2024/01/14 06:51:57;;;;;;;0.50;0.50;;;;;;;;;;4957670;28;20037;-87
2024/01/14 06:54:23;;;;;;;0.50;0.50;;;;;;;;;;4957776;28;20042;-87
2024/01/14 06:56:49;;;;;;;0.40;0.40;;;;;;;;;;4973902;28;20046;-87
2024/01/14 06:59:20;;;;;;;0.50;0.50;;;;;;;;;;4957589;28;20053;-87
2024/01/14 07:01:46;;;;;;;0.50;0.50;;;;;;;;;;4958011;28;20043;-87
2024/01/14 07:04:13;;;;;;;0.50;0.50;;;;;;;;;;4973618;28;20093;-88
2024/01/14 07:06:39;;;;;;;0.47;0.47;;;;;;;;;;4973831;28;20047;-88
2024/01/14 07:09:05;;;;;;;0.40;0.40;;;;;;;;;;4973938;28;20041;-89
2024/01/14 07:11:31;;;;;;;0.43;0.43;;;;;;;;;;4957624;28;20043;-88
2024/01/14 07:13:58;;;;;;;0.40;0.40;;;;;;;;;;4973376;28;20042;-89
2024/01/14 07:16:24;;;;;;;0.40;0.40;;;;;;;;;;4957309;28;20039;-89
2024/01/14 07:18:50;;;;;;;0.50;0.50;;;;;;;;;;4957768;28;20129;-89
2024/01/14 07:21:20;;;;;;;0.40;0.40;;;;;;;;;;4957077;28;20084;-89
2024/01/14 07:23:46;;;;;;;0.40;0.40;;;;;;;;;;4957713;28;20406;-89
2024/01/14 07:26:16;;;;;;;0.50;0.50;;;;;;;;;;4957248;28;20035;-89
2024/01/14 07:28:42;;;;;;;0.50;0.50;;;;;;;;;;4957511;28;20527;-89
2024/01/14 07:31:09;;;;;;;0.50;0.50;;;;;;;;;;4957200;28;20039;-88
2024/01/14 07:33:35;;;;;;;0.50;0.50;;;;;;;;;;4957074;28;20137;-89
2024/01/14 07:36:01;;;;;;;0.50;0.50;;;;;;;;;;4957328;28;20505;-88
2024/01/14 07:38:27;;;;;;;0.50;0.50;;;;;;;;;;4957288;28;20073;-88
2024/01/14 07:40:53;;;;;;;0.50;0.50;;;;;;;;;;4957329;28;20042;-89
2024/01/14 07:43:19;;;;;;;0.50;0.50;;;;;;;;;;4972895;28;20043;-88
2024/01/14 07:45:45;;;;;;;0.60;0.60;;;;;;;;;;4957344;28;20121;-89
2024/01/14 07:48:11;;;;;;;0.50;0.50;;;;;;;;;;4944431;28;20106;-89
2024/01/14 07:50:37;;;;;;;0.40;0.40;;;;;;;;;;4937830;29;20482;-89
2024/01/14 07:53:03;;;;;;;0.50;0.50;;;;;;;;;;4944542;28;20050;-89
2024/01/14 07:55:30;;;;;;;0.40;0.40;;;;;;;;;;4956863;28;20047;-88
2024/01/14 07:57:57;;;;;;;0.50;0.50;;;;;;;;;;4956956;28;20038;-89
2024/01/14 08:00:23;;;;;;;0.50;0.50;;;;;;;;;;4957241;28;20043;-88
2024/01/14 08:02:49;;;;;;;0.50;0.50;;;;;;;;;;4956562;28;20088;-88
2024/01/14 08:05:15;;;;;;;0.50;0.50;;;;;;;;;;4957077;28;20671;-88
2024/01/14 08:07:41;;;;;;;0.50;0.50;;;;;;;;;;4957139;28;20047;-89
2024/01/14 08:10:07;;;;;;;0.50;0.50;;;;;;;;;;4956939;28;20074;-89
2024/01/14 08:12:33;;;;;;;0.50;0.50;;;;;;;;;;4956279;28;20397;-88
2024/01/14 08:14:59;;;;;;;0.50;0.50;;;;;;;;;;4956894;28;20057;-89
2024/01/14 08:17:26;;;;;;;0.50;0.50;;;;;;;;;;4956846;28;20043;-89
2024/01/14 08:19:53;;;;;;;0.50;0.50;;;;;;;;;;4957230;28;20399;-88
2024/01/14 08:22:22;;;;;;;0.50;0.50;;;;;;;;;;4956746;28;20134;-89
2024/01/14 08:24:48;;;;;;;0.40;0.40;;;;;;;;;;4956174;28;20054;-89
2024/01/14 08:27:15;;;;;;;0.50;0.50;;;;;;;;;;4956908;28;20481;-89
2024/01/14 08:29:41;;;;;;;0.50;0.50;;;;;;;;;;4956592;28;20039;-89
2024/01/14 08:32:07;;;;;;;0.50;0.50;;;;;;;;;;4955596;28;20061;-89
2024/01/14 08:34:33;;;;;;;0.40;0.40;;;;;;;;;;4963920;28;20042;-88
2024/01/14 08:36:59;;;;;;;0.50;0.50;;;;;;;;;;4959388;28;20074;-89
2024/01/14 08:39:25;;;;;;;0.50;0.50;;;;;;;;;;4960361;28;20070;-89
2024/01/14 08:41:51;;;;;;;0.50;0.50;;;;;;;;;;4971185;28;20074;-89
2024/01/14 08:44:17;;;;;;;0.50;0.50;;;;;;;;;;4960014;28;20126;-88
2024/01/14 08:46:47;;;;;;;0.50;0.50;;;;;;;;;;4966409;28;20035;-88
2024/01/14 08:49:13;;;;;;;0.50;0.50;;;;;;;;;;4963067;28;20035;-87
2024/01/14 08:51:40;;;;;;;0.50;0.50;;;;;;;;;;4972740;28;20038;-88
2024/01/14 08:54:06;;;;;;;0.40;0.40;;;;;;;;;;4975334;28;20119;-88
2024/01/14 08:56:32;;;;;;;0.50;0.50;;;;;;;;;;4960105;28;20046;-88
2024/01/14 08:58:58;;;;;;;0.50;0.50;;;;;;;;;;4960156;28;20039;-88
2024/01/14 09:01:26;;;;;;;0.50;0.50;;;;;;;;;;4959253;28;20245;-89
2024/01/14 09:03:53;;;;;;;0.50;0.50;;;;;;;;;;4961797;28;20055;-88
2024/01/14 09:06:19;;;;;;;0.50;0.50;;;;;;;;;;4961297;28;20124;-89
2024/01/14 09:08:45;;;;;;;0.50;0.50;;;;;;;;;;4961334;28;20079;-88
2024/01/14 09:11:11;;;;;;;0.50;0.50;;;;;;;;;;4958793;28;20420;-89
2024/01/14 09:13:37;;;;;;;0.50;0.50;;;;;;;;;;4948020;28;20035;-87
2024/01/14 09:16:03;;;;;;;0.50;0.50;;;;;;;;;;4960561;28;20098;-88
2024/01/14 09:18:29;;;;;;;0.50;0.50;;;;;;;;;;4956487;28;20050;-88
2024/01/14 09:20:55;;;;;;;0.50;0.50;;;;;;;;;;4943948;29;20047;-88
2024/01/14 09:23:21;;;;;;;0.50;0.50;;;;;;;;;;4966748;28;20039;-89
2024/01/14 09:25:51;;;;;;;0.50;0.50;;;;;;;;;;4959640;28;20039;-88
2024/01/14 09:28:17;;;;;;;0.50;0.50;;;;;;;;;;4943313;28;20047;-88
2024/01/14 09:30:43;;;;;;;0.45;0.45;;;;;;;;;;4968543;28;20050;-88
2024/01/14 09:33:09;;;;;;;0.50;0.50;;;;;;;;;;4959493;28;20429;-89
2024/01/14 09:35:35;;;;;;;0.50;0.50;;;;;;;;;;4944455;28;20071;-88
2024/01/14 09:38:01;;;;;;;0.50;0.50;;;;;;;;;;4940633;29;20089;-89
2024/01/14 09:40:27;;;;;;;0.50;0.50;;;;;;;;;;4960267;28;20043;-89
2024/01/14 09:42:56;;;;;;;0.50;0.50;;;;;;;;;;4953443;28;20039;-89
2024/01/14 09:45:23;;;;;;;0.40;0.40;;;;;;;;;;4949599;29;20047;-89
2024/01/14 09:47:49;;;;;;;0.50;0.50;;;;;;;;;;4942551;28;20102;-89
2024/01/14 09:50:15;;;;;;;0.50;0.50;;;;;;;;;;4964306;28;20105;-89
2024/01/14 09:52:41;;;;;;;0.50;0.50;;;;;;;;;;4958617;28;20066;-89
2024/01/14 09:55:07;;;;;;;0.50;0.50;;;;;;;;;;4957319;28;20046;-89
2024/01/14 09:57:35;;;;;;;0.40;0.40;;;;;;;;;;4958146;28;20038;-89
2024/01/14 10:00:08;;;;;;;0.43;0.43;;;;;;;;;;4955629;28;20050;-90
2024/01/14 10:02:34;;;;;;;0.50;0.50;;;;;;;;;;4950451;28;20094;-89
2024/01/14 10:05:01;;;;;;;0.50;0.50;;;;;;;;;;4954883;28;20054;-89
2024/01/14 10:07:27;;;;;;;0.50;0.50;;;;;;;;;;4962020;28;20030;-89
2024/01/14 10:09:53;;;;;;;0.50;0.50;;;;;;;;;;4957762;28;20449;-90
2024/01/14 10:12:19;;;;;;;0.50;0.50;;;;;;;;;;4955556;28;20046;-90
2024/01/14 10:14:45;;;;;;;0.45;0.45;;;;;;;;;;4957652;28;20047;-89
2024/01/14 10:17:14;;;;;;;0.50;0.50;;;;;;;;;;4956778;28;20038;-89
2024/01/14 10:19:51;;;;;;;0.40;0.40;;;;;;;;;;4958001;28;20039;-89
2024/01/14 10:22:17;;;;;;;0.50;0.50;;;;;;;;;;4954701;28;20042;-88
2024/01/14 10:24:49;;;;;;;0.45;0.45;;;;;;;;;;4957673;28;20796;-87
2024/01/14 10:27:16;;;;;;;0.50;0.50;;;;;;;;;;4958487;28;20122;-88
2024/01/14 10:29:42;;;;;;;0.47;0.47;;;;;;;;;;4967902;28;20038;-88
2024/01/14 10:32:08;;;;;;;0.50;0.50;;;;;;;;;;4957796;28;20081;-89
2024/01/14 10:34:38;;;;;;;0.47;0.47;;;;;;;;;;4955577;28;20070;-88
2024/01/14 10:37:04;;;;;;;0.50;0.50;;;;;;;;;;4957498;28;20038;-88
2024/01/14 10:39:30;;;;;;;0.50;0.50;;;;;;;;;;4957442;28;20031;-87
2024/01/14 10:41:56;;;;;;;0.40;0.40;;;;;;;;;;4956252;28;20045;-88
2024/01/14 10:44:22;;;;;;;0.40;0.40;;;;;;;;;;4973119;28;20409;-89
2024/01/14 10:46:51;;;;;;;0.50;0.50;;;;;;;;;;4972075;28;20061;-88
2024/01/14 10:49:18;;;;;;;0.50;0.50;;;;;;;;;;4956259;28;20540;-88
2024/01/14 10:51:50;;;;;;;0.50;0.50;;;;;;;;;;4951705;28;20170;-87
2024/01/14 10:54:39;;;;;;;0.40;0.40;;;;;;;;;;4954204;28;20035;-88
2024/01/14 10:57:08;;;;;;;0.50;0.50;;;;;;;;;;4959865;28;20379;-87
2024/01/14 10:59:36;;;;;;;0.60;0.60;;;;;;;;;;4966613;28;20605;-88
2024/01/14 11:02:06;;;;;;;0.50;0.50;;;;;;;;;;4969664;28;20125;-87
2024/01/14 11:04:32;;;;;;;0.50;0.50;;;;;;;;;;4957509;28;20035;-88
2024/01/14 11:06:58;;;;;;;0.50;0.50;;;;;;;;;;4957456;28;20549;-88
2024/01/14 11:09:24;;;;;;;0.50;0.50;;;;;;;;;;4956072;28;20505;-88
2024/01/14 11:11:52;;;;;;;0.50;0.50;;;;;;;;;;4953086;28;20051;-89
2024/01/14 11:14:30;;;;;;;0.50;0.50;;;;;;;;;;4957339;28;20038;-89
2024/01/14 11:17:06;;;;;;;0.50;0.50;;;;;;;;;;4974615;28;20039;-88
2024/01/14 11:19:34;;;;;;;0.60;0.60;;;;;;;;;;4957667;28;20038;-81
2024/01/14 11:22:15;;;;;;;0.50;0.50;;;;;;;;;;4960558;28;20067;-81
2024/01/14 11:24:41;;;;;;;0.50;0.50;;;;;;;;;;4957789;28;20078;-81
2024/01/14 11:27:08;;;;;;;0.50;0.50;;;;;;;;;;4953906;28;20043;-83
2024/01/14 11:29:36;;;;;;;0.50;0.50;;;;;;;;;;4969479;28;20054;-86
2024/01/14 11:32:12;;;;;;;0.50;0.50;;;;;;;;;;4951672;28;20042;-85
2024/01/14 11:34:47;;;;;;;0.50;0.50;;;;;;;;;;4957897;28;20046;-85
2024/01/14 11:37:32;;;;;;;0.50;0.50;;;;;;;;;;4956553;28;20117;-85
2024/01/14 11:40:08;;;;;;;0.50;0.50;;;;;;;;;;4959089;28;20046;-84
2024/01/14 11:42:34;;;;;;;;;;;;;;;;;;4956081;28;20500;-82
2024/01/14 11:45:03;;;;;;;0.60;0.60;;;;;;;;;;4958682;28;19922;-83
2024/01/14 11:47:36;;;;;;;0.50;0.50;;;;;;;;;;4955024;28;20038;-81
2024/01/14 11:50:03;;;;;;;0.50;0.50;;;;;;;;;;4954846;28;20038;-81
2024/01/14 11:52:29;;;;;;;0.50;0.50;;;;;;;;;;4957826;28;20034;-82
2024/01/14 11:54:55;;;;;;;0.50;0.50;;;;;;;;;;4954613;28;20050;-82
2024/01/14 11:57:23;;;;;;;0.50;0.50;;;;;;;;;;4953309;28;20043;-81
2024/01/14 11:59:49;;;;;;;0.50;0.50;;;;;;;;;;4954793;28;20062;-81
2024/01/14 12:02:15;;;;;;;0.50;0.50;;;;;;;;;;4954030;28;20161;-81
2024/01/14 12:04:41;;;;;;;0.50;0.50;;;;;;;;;;4953189;28;20070;-81
2024/01/14 12:07:07;;;;;;;0.50;0.50;;;;;;;;;;4953682;28;20043;-81
2024/01/14 12:09:33;;;;;;;0.47;0.47;;;;;;;;;;4947281;28;20501;-82
2024/01/14 12:12:04;;;;;;;0.50;0.50;;;;;;;;;;4968929;28;20042;-81
2024/01/14 12:14:36;;;;;;;0.50;0.50;;;;;;;;;;4947163;28;20046;-85
2024/01/14 12:17:03;;;;;;;0.50;0.50;;;;;;;;;;4967479;28;20089;-81
2024/01/14 12:19:29;;;;;;;0.60;0.60;;;;;;;;;;4951107;28;20090;-81
2024/01/14 12:21:55;;;;;;;0.40;0.40;;;;;;;;;;4954320;28;20035;-81
2024/01/14 12:24:21;;;;;;;0.50;0.50;;;;;;;;;;4946713;28;20035;-81
2024/01/14 12:26:47;;;;;;;0.60;0.60;;;;;;;;;;4950339;28;20125;-80
2024/01/14 12:29:13;;;;;;;0.50;0.50;;;;;;;;;;4946498;28;20039;-81
2024/01/14 12:31:39;;;;;;;0.50;0.50;;;;;;;;;;4961532;28;20039;-81
2024/01/14 12:34:07;;;;;;;0.50;0.50;;;;;;;;;;4953190;28;20122;-81
2024/01/14 12:36:34;;;;;;;0.50;0.50;;;;;;;;;;4943719;28;20046;-81
2024/01/14 12:39:00;;;;;;;0.50;0.50;;;;;;;;;;4962968;28;20412;-80
2024/01/14 12:41:26;;;;;;;0.50;0.50;;;;;;;;;;4943595;28;20103;-81
2024/01/14 12:43:52;;;;;;;0.50;0.50;;;;;;;;;;4946065;28;20129;-81
2024/01/14 12:46:19;;;;;;;0.50;0.50;;;;;;;;;;4944523;28;20577;-81
2024/01/14 12:48:45;;;;;;;0.50;0.50;;;;;;;;;;4945174;28;20058;-81
2024/01/14 12:51:10;;;;;;;0.50;0.50;;;;;;;;;;4943046;28;20130;-81
2024/01/14 12:53:36;;;;;;;0.50;0.50;;;;;;;;;;4945735;28;20035;-81
2024/01/14 12:56:10;;;;;;;0.50;0.50;;;;;;;;;;4959896;28;20489;-81
2024/01/14 12:58:36;;;;;;;0.50;0.50;;;;;;;;;;4946312;28;20497;-81
2024/01/14 13:01:02;;;;;;;0.50;0.50;;;;;;;;;;4943394;28;20415;-81
2024/01/14 13:03:28;;;;;;;0.50;0.50;;;;;;;;;;4946467;28;20544;-81
2024/01/14 13:05:54;;;;;;;0.50;0.50;;;;;;;;;;4959396;28;20043;-81
2024/01/14 13:08:20;;;;;;;0.50;0.50;;;;;;;;;;4945938;28;21417;-81
2024/01/14 13:10:46;;;;;;;0.47;0.47;;;;;;;;;;4948627;28;20043;-81
2024/01/14 13:13:12;;;;;;;0.50;0.50;;;;;;;;;;4960686;28;20035;-81
2024/01/14 13:15:38;;;;;;;0.50;0.50;;;;;;;;;;4945690;28;20524;-81
2024/01/14 13:18:04;;;;;;;0.50;0.50;;;;;;;;;;4944588;28;20039;-80
2024/01/14 13:20:30;;;;;;;0.50;0.50;;;;;;;;;;4950003;28;20047;-80
2024/01/14 13:22:56;;;;;;;0.50;0.50;;;;;;;;;;4946761;29;20556;-81
2024/01/14 13:25:22;;;;;;;0.50;0.50;;;;;;;;;;4949687;28;20047;-81
2024/01/14 13:27:48;;;;;;;0.45;0.45;;;;;;;;;;4963362;28;20129;-81
2024/01/14 13:30:14;;;;;;;0.50;0.50;;;;;;;;;;4952326;28;20122;-81
2024/01/14 13:32:40;;;;;;;0.50;0.50;;;;;;;;;;4964210;28;20042;-81
2024/01/14 13:35:07;;;;;;;0.50;0.50;;;;;;;;;;4947633;28;20139;-80
2024/01/14 13:37:37;;;;;;;0.50;0.50;;;;;;;;;;4965281;28;20042;-81
2024/01/14 13:40:06;;;;;;;0.50;0.50;;;;;;;;;;4947246;28;20039;-81
2024/01/14 13:42:33;;;;;;;0.40;0.40;;;;;;;;;;4964794;28;20039;-81
2024/01/14 13:44:59;;;;;;;0.50;0.50;;;;;;;;;;4952972;28;20054;-81
2024/01/14 13:47:25;;;;;;;0.50;0.50;;;;;;;;;;4946196;28;20441;-81
2024/01/14 13:49:51;;;;;;;0.40;0.40;;;;;;;;;;4946381;28;20540;-81
2024/01/14 13:52:17;;;;;;;0.50;0.50;;;;;;;;;;4948324;28;20063;-82
2024/01/14 13:54:44;;;;;;;0.50;0.50;;;;;;;;;;4947313;28;20041;-81
2024/01/14 13:57:10;;;;;;;0.45;0.45;;;;;;;;;;4947447;28;20400;-81
2024/01/14 13:59:37;;;;;;;0.50;0.50;;;;;;;;;;4948095;28;20066;-81
2024/01/14 14:02:03;;;;;;;0.50;0.50;;;;;;;;;;4946582;28;20045;-81
2024/01/14 14:04:29;;;;;;;0.50;0.50;;;;;;;;;;4948762;28;20578;-81
2024/01/14 14:06:55;;;;;;;0.50;0.50;;;;;;;;;;4949834;28;20493;-81
2024/01/14 14:09:21;;;;;;;0.50;0.50;;;;;;;;;;4949134;28;20062;-81
2024/01/14 14:11:47;;;;;;;0.60;0.60;;;;;;;;;;4946376;28;20130;-81
2024/01/14 14:14:13;;;;;;;0.50;0.50;;;;;;;;;;4966692;28;20094;-80
2024/01/14 14:16:40;;;;;;;0.50;0.50;;;;;;;;;;4952797;28;20133;-82
2024/01/14 14:19:06;;;;;;;0.60;0.60;;;;;;;;;;4949104;28;20039;-81
2024/01/14 14:21:33;;;;;;;0.50;0.50;;;;;;;;;;4963958;28;20070;-81
2024/01/14 14:23:59;;;;;;;0.50;0.50;;;;;;;;;;4945680;28;20421;-81
2024/01/14 14:26:25;;;;;;;0.50;0.50;;;;;;;;;;4952637;28;20093;-81
2024/01/14 14:28:51;;;;;;;0.50;0.50;;;;;;;;;;4949516;28;20133;-81
2024/01/14 14:31:18;;;;;;;0.50;0.50;;;;;;;;;;4964515;28;20496;-81
2024/01/14 14:33:45;;;;;;;0.50;0.50;;;;;;;;;;4946004;28;20375;-81
2024/01/14 14:36:11;;;;;;;0.52;0.52;;;;;;;;;;4947409;28;20062;-81
2024/01/14 14:38:37;;;;;;;0.50;0.50;;;;;;;;;;4946904;28;20038;-80